createdAt,value
2022-08-05T00:08:35.712Z,6.00
2022-08-05T00:18:45.429Z,5.40
2022-08-05T00:28:52.133Z,6.60
2022-08-05T00:38:59.406Z,5.80
2022-08-05T00:49:05.961Z,5.80
2022-08-05T00:59:14.226Z,6.30
2022-08-05T01:09:20.664Z,6.60
2022-08-05T01:20:01.722Z,5.90
2022-08-05T01:30:03.359Z,6.10
2022-08-05T01:40:10.835Z,6.50
2022-08-05T01:50:29.774Z,6.50
2022-08-05T02:00:39.201Z,6.70
2022-08-05T02:10:50.611Z,6.70
2022-08-05T02:21:17.914Z,6.80
2022-08-05T02:31:28.379Z,6.70
2022-08-05T02:41:42.892Z,7.10
2022-08-05T02:52:04.349Z,7.30
2022-08-05T03:02:11.494Z,6.90
2022-08-05T03:12:37.730Z,8.10
2022-08-05T03:22:49.860Z,9.20
2022-08-05T03:32:56.841Z,8.40
2022-08-05T03:43:59.310Z,8.20
2022-08-05T03:55:53.611Z,8.90
2022-08-05T04:04:09.870Z,8.30
2022-08-05T04:14:18.774Z,10.00
2022-08-05T04:24:25.233Z,8.90
2022-08-05T04:34:35.306Z,10.10
2022-08-05T04:44:43.873Z,10.20
2022-08-05T04:54:50.670Z,10.80
2022-08-05T05:05:02.251Z,10.30
2022-08-05T05:15:11.178Z,10.40
2022-08-05T05:25:17.648Z,10.10
2022-08-05T05:35:24.205Z,9.20
2022-08-05T05:45:31.599Z,9.30
2022-08-05T05:55:52.429Z,8.90
2022-08-05T06:06:03.209Z,8.05
2022-08-05T06:16:29.280Z,6.80
2022-08-05T06:26:36.547Z,6.30
2022-08-05T06:36:57.552Z,8.10
2022-08-05T06:47:05.053Z,8.50
2022-08-05T06:57:57.496Z,7.30
2022-08-05T07:07:46.349Z,8.70
2022-08-05T07:18:00.995Z,8.40
2022-08-05T07:28:17.280Z,9.10
2022-08-05T07:38:33.847Z,8.70
2022-08-05T07:49:02.856Z,8.80
2022-08-05T07:59:08.630Z,9.40
2022-08-05T08:09:15.226Z,7.90
2022-08-05T08:20:21.143Z,9.00
2022-08-05T08:30:05.343Z,7.90
2022-08-05T08:40:15.278Z,7.20
2022-08-05T08:50:46.428Z,7.60
2022-08-05T09:00:50.062Z,6.80
2022-08-05T09:10:57.798Z,6.80
2022-08-05T09:21:05.153Z,6.40
2022-08-05T09:31:44.096Z,6.00
2022-08-05T09:41:58.592Z,5.60
2022-08-05T09:52:36.715Z,5.80
2022-08-05T10:02:58.422Z,5.50
2022-08-05T10:13:09.977Z,5.50
2022-08-05T10:23:34.763Z,5.40
2022-08-05T10:33:52.412Z,5.60
2022-08-05T10:44:05.624Z,5.30
2022-08-05T10:54:28.681Z,5.60
2022-08-05T11:04:45.537Z,5.30
2022-08-05T11:15:20.370Z,4.80
2022-08-05T11:26:04.451Z,5.00
2022-08-05T11:36:08.613Z,4.80
2022-08-05T11:46:32.260Z,5.70
2022-08-05T11:56:50.411Z,4.80
2022-08-05T12:07:00.978Z,5.00
2022-08-05T12:18:00.658Z,4.70
2022-08-05T12:27:36.110Z,4.75
2022-08-05T12:38:00.116Z,4.80
2022-08-05T12:48:27.665Z,4.90
2022-08-05T12:58:51.627Z,4.60
2022-08-05T13:09:12.656Z,4.10
2022-08-05T13:19:22.993Z,4.40
2022-08-05T13:29:37.674Z,4.20
2022-08-05T13:40:16.761Z,4.00
2022-08-05T13:50:16.239Z,4.40
2022-08-05T14:00:27.343Z,4.20
2022-08-05T14:10:34.658Z,4.10
2022-08-05T14:20:41.021Z,4.40
2022-08-05T14:30:53.531Z,4.30
2022-08-05T14:41:00.093Z,4.20
2022-08-05T14:51:06.505Z,4.60
2022-08-05T15:01:16.002Z,5.00
2022-08-05T15:11:24.473Z,4.70
2022-08-05T15:21:50.792Z,7.40
2022-08-05T15:32:02.320Z,5.50
2022-08-05T15:42:54.357Z,5.30
2022-08-05T15:52:54.615Z,5.10
2022-08-05T16:03:01.775Z,4.80
2022-08-05T16:13:08.520Z,5.30
2022-08-05T16:23:14.889Z,4.60
2022-08-05T16:33:21.662Z,4.80
2022-08-05T16:43:29.426Z,4.70
2022-08-05T16:54:02.883Z,4.60
2022-08-05T17:04:02.069Z,4.90
2022-08-05T17:14:08.395Z,4.80
2022-08-05T17:24:34.982Z,4.80
2022-08-05T17:34:49.238Z,4.40
2022-08-05T17:44:55.676Z,4.90
2022-08-05T17:55:03.117Z,4.70
2022-08-05T18:05:09.902Z,4.60
2022-08-05T18:15:20.139Z,3.30
2022-08-05T18:25:33.121Z,3.00
2022-08-05T18:36:00.142Z,3.10
2022-08-05T18:46:09.609Z,3.80
2022-08-05T18:56:16.254Z,3.80
2022-08-05T19:06:37.217Z,3.50
2022-08-05T19:16:51.137Z,3.90
2022-08-05T19:26:58.301Z,4.00
2022-08-05T19:37:04.742Z,4.40
2022-08-05T19:47:11.424Z,4.90
2022-08-05T19:57:21.745Z,5.00
2022-08-05T20:07:49.142Z,4.70
2022-08-05T20:17:55.637Z,5.40
2022-08-05T20:28:02.068Z,5.60
2022-08-05T20:38:08.650Z,5.90
2022-08-05T20:48:16.492Z,5.60
2022-08-05T20:58:23.093Z,5.70
2022-08-05T21:08:42.115Z,6.00
2022-08-05T21:18:50.518Z,6.10
2022-08-05T21:28:56.857Z,6.40
2022-08-05T21:39:14.182Z,6.50
2022-08-05T21:49:56.840Z,6.80
2022-08-05T22:00:05.514Z,7.75
2022-08-05T22:10:13.255Z,8.10
2022-08-05T22:20:21.032Z,8.50
2022-08-05T22:30:34.954Z,8.60
2022-08-05T22:40:49.635Z,8.70
2022-08-05T22:50:56.569Z,8.80
2022-08-05T23:01:05.811Z,8.80
2022-08-05T23:11:12.963Z,8.70
2022-08-05T23:21:19.523Z,8.20
2022-08-05T23:31:25.849Z,8.40
2022-08-05T23:41:40.943Z,9.10
2022-08-05T23:52:09.212Z,8.90
